Terminal Aerodrome Forecast
Issued by NWS

Home | Current Version | Previous Version | Text Only | Print | Product List | Glossary On
Versions: 1 2 3 4 5 6 7 8 9 10 11 12 13 14 15 16 17 18
399
FTUS44 KEPZ 301120
TAFDMN
TAF
KDMN 301120Z 3012/3112 07006KT P6SM SCT050 BKN100
     FM310000 09007KT P6SM VCTS BKN050CB
      TEMPO 3103/3107 VRB20G30KT 1SM TSRA BKN040CB=

USA.gov is the U.S. government's official web portal to all federal, state and local government web resources and services.